tititudorancea.com
Station Historical Data
Daily Summary for July 21, 2018 Units:  Metric    English   Both
« Previous Day
Next Day »
Daily Weekly Monthly Yearly Custom
  High: Low: Average:
Temperature: -17.8 °C 1.9 °C 6.3 °C
Dew Point: -17.8 °C 1.1 °C 3.7 °C
Humidity: Humidity % 58 % 84 %
Wind Speed: 0 km/h 0 km/h 6.9 km/h
Wind Gust: 0 km/h - -
Wind:- - NW
Pressure: 0 hPa 1018.8 hPa -
Precipitation: 0.25 mm    
Historical Graphs
 
 
Ararat weather Find more about Weather in Ararat, AU


 



 


Tabular Data for July 21, 2018
Time Temperature Dew Point Pressure Wind Wind Speed Wind Gust Humidity Rainfall Rate (Hourly)
-17.8 °C -17.8 °C 0 hPa Calm     Humidity % 0 mm
00:04 6.2 °C 4.6 °C 1018.8 hPa West 3.7 km/h 0.6 km/h 89 % 0 mm
00:09 6.2 °C 4.5 °C 1018.8 hPa Calm     89 % 0 mm
00:14 6 °C 4.2 °C 1018.8 hPa Calm     88 % 0 mm
00:19 5.8 °C 3.9 °C 1019.2 hPa West 3.2 km/h 1.3 km/h 88 % 0 mm
00:24 5.6 °C 3.7 °C 1018.8 hPa Calm     88 % 0 mm
00:29 5.3 °C 3.4 °C 1018.8 hPa West 1.9 km/h   88 % 0 mm
00:34 5.1 °C 3.4 °C 1018.8 hPa West 1.9 km/h   89 % 0 mm
00:39 5 °C 3.3 °C 1018.8 hPa West 5.6 km/h 2.6 km/h 89 % 0 mm
00:44 4.9 °C 3.4 °C 1019.2 hPa Calm     90 % 0 mm
00:49 4.9 °C 3.4 °C 1019.2 hPa West 5.6 km/h 1.9 km/h 90 % 0 mm
00:54 4.9 °C 3.6 °C 1018.8 hPa North 5.6 km/h 1.9 km/h 91 % 0 mm
00:59 5.1 °C 3.9 °C 1019.2 hPa West 7.4 km/h 5.3 km/h 92 % 0 mm
01:04 5.4 °C 4.2 °C 1019.2 hPa West 5.6 km/h 4.5 km/h 92 % 0 mm
01:09 5.4 °C 4.1 °C 1019.2 hPa West 3.7 km/h 2.3 km/h 91 % 0 mm
01:14 5.4 °C 4.1 °C 1019.2 hPa West 5.6 km/h 1.6 km/h 91 % 0 mm
01:19 5.4 °C 4.2 °C 1019.2 hPa West 3.2 km/h 0.6 km/h 92 % 0 mm
01:24 5.5 °C 4.3 °C 1018.8 hPa West 5.6 km/h 3.4 km/h 92 % 0 mm
01:29 5.6 °C 4.3 °C 1018.8 hPa West 7.4 km/h 5.5 km/h 92 % 0 mm
01:34 5.6 °C 4.4 °C 1019.2 hPa West 6.4 km/h 6.1 km/h 92 % 0 mm
01:39 5.7 °C 4.5 °C 1019.2 hPa West 5.6 km/h 4.2 km/h 92 % 0 mm
01:44 5.8 °C 4.6 °C 1018.8 hPa West 5.6 km/h 3.1 km/h 92 % 0 mm
01:49 5.8 °C 4.6 °C 1019.2 hPa West 5.6 km/h 2.1 km/h 92 % 0 mm
01:54 5.7 °C 4.3 °C 1019.2 hPa North 4.8 km/h 1.6 km/h 91 % 0 mm
01:59 5.5 °C 4.3 °C 1019.2 hPa West 3.2 km/h 0.5 km/h 92 % 0 mm
02:04 5.4 °C 4.2 °C 1019.2 hPa West 5.6 km/h 1.3 km/h 92 % 0 mm
02:09 5.4 °C 4.2 °C 1019.2 hPa West 5.6 km/h 3.9 km/h 92 % 0 mm
02:14 5.4 °C 4.2 °C 1019.2 hPa West 5.6 km/h 3.7 km/h 92 % 0 mm
02:19 5.5 °C 4.4 °C 1019.2 hPa West 5.6 km/h 4 km/h 93 % 0 mm
02:24 5.7 °C 4.6 °C 1019.2 hPa West 5.6 km/h 4.3 km/h 93 % 0 mm
02:29 5.7 °C 4.7 °C 1019.5 hPa West 6.4 km/h 4 km/h 93 % 0 mm
02:34 5.7 °C 4.7 °C 1019.5 hPa West 5.6 km/h 5.6 km/h 93 % 0 mm
02:39 5.8 °C 4.8 °C 1019.5 hPa West 3.7 km/h 1.9 km/h 93 % 0 mm
02:44 5.9 °C 4.8 °C 1019.5 hPa West 3.7 km/h 0.3 km/h 93 % 0 mm
02:49 5.8 °C 4.8 °C 1019.5 hPa North 3.7 km/h 2.4 km/h 93 % 0 mm
02:54 5.8 °C 4.7 °C 1019.5 hPa Calm     93 % 0 mm
02:59 5.7 °C 4.6 °C 1019.5 hPa West 5.6 km/h 2.3 km/h 93 % 0 mm
03:04 5.6 °C 4.3 °C 1019.5 hPa West 1.9 km/h   92 % 0 mm
03:09 5.4 °C 4.2 °C 1019.5 hPa Calm     92 % 0 mm
03:14 5.3 °C 4.1 °C 1019.5 hPa Calm     92 % 0 mm
03:19 5.2 °C 4.1 °C 1019.5 hPa Calm     92 % 0 mm
03:24 5.1 °C 3.9 °C 1019.5 hPa Calm     92 % 0 mm
03:29 5 °C 3.9 °C 1019.5 hPa Calm     93 % 0 mm
03:34 5 °C 3.9 °C 1019.5 hPa Calm     93 % 0 mm
03:39 4.9 °C 3.8 °C 1019.5 hPa Calm   0.3 km/h 93 % 0 mm
03:44 4.8 °C 3.8 °C 1019.5 hPa Calm     93 % 0 mm
03:49 4.8 °C 3.8 °C 1019.5 hPa West 1.9 km/h 2.1 km/h 93 % 0 mm
03:54 4.8 °C 3.8 °C 1019.5 hPa West 5.6 km/h 2.9 km/h 93 % 0 mm
03:59 4.9 °C 4 °C 1019.5 hPa West 3.7 km/h 1.6 km/h 94 % 0 mm
04:04 4.8 °C 3.8 °C 1019.5 hPa Calm     93 % 0 mm
04:09 4.8 °C 3.7 °C 1019.5 hPa Calm     93 % 0 mm
04:14 4.7 °C 3.7 °C 1019.5 hPa North 3.7 km/h 0.3 km/h 93 % 0 mm
04:19 4.7 °C 3.7 °C 1019.5 hPa West 3.7 km/h 2.4 km/h 93 % 0 mm
04:24 4.7 °C 3.7 °C 1019.5 hPa Calm     93 % 0 mm
04:29 4.7 °C 3.6 °C 1019.5 hPa Calm     93 % 0 mm
04:34 4.6 °C 3.6 °C 1019.5 hPa Calm     93 % 0 mm
04:39 4.4 °C 3.4 °C 1019.5 hPa Calm     93 % 0 mm
04:44 4.4 °C 3.3 °C 1019.5 hPa Calm     93 % 0 mm
04:49 4.1 °C 3.1 °C 1019.5 hPa Calm     93 % 0 mm
04:54 3.9 °C 2.8 °C 1019.5 hPa Calm     93 % 0 mm
04:59 3.7 °C 2.7 °C 1019.9 hPa Calm     93 % 0 mm
05:04 3.5 °C 2.5 °C 1019.9 hPa Calm     93 % 0 mm
05:09 3.3 °C 2.3 °C 1019.9 hPa Calm     93 % 0 mm
05:14 3.1 °C 2.1 °C 1019.9 hPa Calm     93 % 0 mm
05:19 2.7 °C 1.7 °C 1019.9 hPa Calm     93 % 0 mm
05:24 2.7 °C 1.8 °C 1019.9 hPa West 3.2 km/h 1.8 km/h 94 % 0 mm
05:29 2.8 °C 1.9 °C 1019.9 hPa Calm     94 % 0 mm
05:34 2.7 °C 1.7 °C 1019.9 hPa West 4.8 km/h 3.5 km/h 93 % 0 mm
05:39 2.6 °C 1.7 °C 1020.2 hPa West 3.7 km/h 1.3 km/h 94 % 0 mm
05:44 2.6 °C 1.7 °C 1020.2 hPa West 6.4 km/h 4.3 km/h 94 % 0 mm
05:49 2.7 °C 1.8 °C 1020.2 hPa West 4.8 km/h 3.1 km/h 94 % 0 mm
05:54 2.8 °C 1.9 °C 1020.2 hPa Calm     94 % 0 mm
05:59 2.8 °C 1.9 °C 1020.2 hPa West 3.7 km/h 2.1 km/h 94 % 0 mm
06:04 2.8 °C 1.9 °C 1020.2 hPa West 1.9 km/h 0.5 km/h 94 % 0 mm
06:09 2.7 °C 1.8 °C 1020.2 hPa Calm     94 % 0 mm
06:14 2.6 °C 1.7 °C 1020.5 hPa West 1.9 km/h 1.3 km/h 94 % 0 mm
06:19 2.6 °C 1.7 °C 1020.5 hPa West 5.6 km/h 3.4 km/h 94 % 0 mm
06:24 2.7 °C 1.8 °C 1020.5 hPa North 5.6 km/h 5.3 km/h 94 % 0 mm
06:29 2.7 °C 1.8 °C 1020.5 hPa West 5.6 km/h 5.1 km/h 94 % 0 mm
06:34 2.7 °C 1.8 °C 1020.5 hPa West 9.3 km/h 4.7 km/h 94 % 0 mm
06:39 2.7 °C 1.8 °C 1020.9 hPa West 3.7 km/h 2.6 km/h 94 % 0 mm
06:44 2.7 °C 2 °C 1020.9 hPa West 5.6 km/h 3.4 km/h 95 % 0 mm
06:49 2.7 °C 1.8 °C 1020.9 hPa West 5.6 km/h 2.6 km/h 94 % 0 mm
06:54 2.5 °C 1.6 °C 1020.9 hPa North 5.6 km/h 0.6 km/h 94 % 0 mm
06:59 2.3 °C 1.4 °C 1021.2 hPa North 5.6 km/h 1.8 km/h 94 % 0 mm
07:04 2.2 °C 1.3 °C 1021.2 hPa North 5.6 km/h 2.4 km/h 94 % 0 mm
07:09 2.2 °C 1.3 °C 1021.2 hPa West 6.4 km/h 2.6 km/h 94 % 0 mm
07:14 2.3 °C 1.6 °C 1021.2 hPa West 5.6 km/h 2.7 km/h 95 % 0 mm
07:19 2.4 °C 1.7 °C 1021.6 hPa West 5.6 km/h 1.4 km/h 95 % 0.25 mm
07:24 2.4 °C 1.7 °C 1021.6 hPa Calm     95 % 0.25 mm
07:29 2.4 °C 1.5 °C 1021.6 hPa West 5.6 km/h 3.4 km/h 94 % 0.25 mm
07:34 2.2 °C 1.3 °C 1021.6 hPa West 3.7 km/h 2.4 km/h 94 % 0.25 mm
07:39 2.2 °C 1.3 °C 1021.9 hPa North 5.6 km/h 3.9 km/h 94 % 0.25 mm
07:44 2 °C 1.1 °C 1021.6 hPa West 5.6 km/h 3.1 km/h 94 % 0.25 mm
07:49 2 °C 1.1 °C 1021.9 hPa West 3.7 km/h 2.9 km/h 94 % 0.25 mm
07:54 1.9 °C 1.2 °C 1021.9 hPa West 1.9 km/h   95 % 0.25 mm
07:59 2 °C 1.3 °C 1021.9 hPa North 3.2 km/h 1.6 km/h 95 % 0.25 mm
08:04 2.1 °C 1.3 °C 1021.9 hPa West 5.6 km/h 3.4 km/h 95 % 0.25 mm
08:09 2.1 °C 1.3 °C 1021.9 hPa North 5.6 km/h 0.5 km/h 95 % 0.25 mm
08:14 2.1 °C 1.4 °C 1021.6 hPa West 3.7 km/h 2.3 km/h 95 % 0.25 mm
08:19 2.1 °C 1.3 °C 1021.6 hPa West 5.6 km/h 3.5 km/h 95 % 0 mm
08:24 2.1 °C 1.4 °C 1021.9 hPa North 5.6 km/h 4.3 km/h 95 % 0 mm
08:29 2.2 °C 1.4 °C 1021.9 hPa West 7.4 km/h 2.4 km/h 95 % 0 mm
08:34 2.2 °C 1.5 °C 1021.9 hPa North 5.6 km/h 3.5 km/h 95 % 0 mm
08:39 2.3 °C 1.6 °C 1021.9 hPa West 6.4 km/h 4.5 km/h 95 % 0 mm
08:44 2.3 °C 1.6 °C 1021.9 hPa North 7.4 km/h 7.4 km/h 95 % 0 mm
08:49 2.4 °C 1.7 °C 1021.9 hPa North 9.3 km/h 4.8 km/h 95 % 0 mm
08:54 2.4 °C 1.7 °C 1022.2 hPa West 5.6 km/h 3.1 km/h 95 % 0 mm
08:59 2.6 °C 1.9 °C 1022.2 hPa West 5.6 km/h 2.6 km/h 95 % 0 mm
09:04 2.8 °C 2.1 °C 1022.2 hPa North 13 km/h 8.5 km/h 95 % 0 mm
09:09 2.9 °C 2.2 °C 1022.2 hPa West 7.4 km/h 4.2 km/h 95 % 0 mm
09:14 3.1 °C 2.3 °C 1022.2 hPa North 9.3 km/h 6 km/h 95 % 0 mm
09:19 3.2 °C 2.6 °C 1022.2 hPa West 9.7 km/h 6 km/h 96 % 0 mm
09:24 3.3 °C 2.8 °C 1022.2 hPa WNW 13 km/h 10.1 km/h 96 % 0 mm
09:29 3.4 °C 2.9 °C 1022.2 hPa North 7.4 km/h 5 km/h 96 % 0 mm
09:34 3.6 °C 3.1 °C 1022.2 hPa WNW 11.1 km/h 7.4 km/h 96 % 0 mm
09:39 3.7 °C 3.2 °C 1022.2 hPa WNW 8 km/h 4.3 km/h 96 % 0 mm
09:44 3.9 °C 3.4 °C 1022.2 hPa WNW 9.3 km/h 6.9 km/h 96 % 0 mm
09:49 4.3 °C 3.7 °C 1022.2 hPa WNW 8 km/h 6.3 km/h 96 % 0 mm
09:54 4.3 °C 3.7 °C 1022.6 hPa WNW 13 km/h 8.5 km/h 96 % 0 mm
09:59 4.1 °C 3.4 °C 1022.6 hPa WNW 14.8 km/h 9.3 km/h 95 % 0 mm
10:04 4.3 °C 3.7 °C 1022.6 hPa WNW 8 km/h 4.8 km/h 96 % 0 mm
10:09 4.7 °C 4.1 °C 1022.6 hPa WNW 7.4 km/h 4.7 km/h 96 % 0 mm
10:14 4.8 °C 4.2 °C 1022.6 hPa WNW 8 km/h 3.9 km/h 96 % 0 mm
10:19 5.1 °C 4.4 °C 1022.6 hPa WNW 14.8 km/h 9 km/h 96 % 0 mm
10:24 5.3 °C 4.7 °C 1022.6 hPa WNW 11.1 km/h 6.9 km/h 96 % 0 mm
10:29 5.4 °C 4.8 °C 1022.6 hPa North 16.7 km/h 13.5 km/h 96 % 0 mm
10:34 5.3 °C 4.7 °C 1022.6 hPa North 14.8 km/h 6.8 km/h 96 % 0 mm
10:39 5.5 °C 4.9 °C 1022.6 hPa North 16.7 km/h 10.8 km/h 96 % 0 mm
10:44 5.6 °C 4.8 °C 1022.6 hPa North 11.1 km/h 9.3 km/h 95 % 0 mm
10:49 5.7 °C 5 °C 1022.9 hPa NNW 18.5 km/h 8.9 km/h 95 % 0 mm
10:54 5.8 °C 5.1 °C 1022.9 hPa NNW 9.3 km/h 8.5 km/h 95 % 0 mm
10:59 5.9 °C 5 °C 1022.9 hPa North 16.7 km/h 12.2 km/h 94 % 0 mm
11:04 6 °C 5.1 °C 1022.9 hPa North 14.8 km/h 7.7 km/h 94 % 0 mm
11:09 6.3 °C 5.4 °C 1022.9 hPa North 13 km/h 7.1 km/h 94 % 0 mm
11:14 6.6 °C 5.7 °C 1022.9 hPa North 8 km/h 6.4 km/h 94 % 0 mm
11:19 6.9 °C 6.1 °C 1022.6 hPa North 12.9 km/h 8.7 km/h 94 % 0 mm
11:24 7.3 °C 6.2 °C 1022.6 hPa North 9.3 km/h 6 km/h 93 % 0 mm
11:29 7.6 °C 6.3 °C 1022.6 hPa North 9.3 km/h 7.7 km/h 92 % 0 mm
11:34 8 °C 6.6 °C 1022.6 hPa North 9.3 km/h 7.1 km/h 91 % 0 mm
11:39 8.2 °C 6.5 °C 1022.6 hPa North 13 km/h 8.9 km/h 89 % 0 mm
11:44 8.4 °C 6.5 °C 1022.6 hPa North 9.7 km/h 8.2 km/h 88 % 0 mm
11:49 8.6 °C 6.5 °C 1022.6 hPa North 14.8 km/h 7.4 km/h 87 % 0 mm
11:54 8.7 °C 6.3 °C 1022.6 hPa NNW 13 km/h 7.2 km/h 85 % 0 mm
11:59 8.9 °C 6.3 °C 1022.2 hPa NNW 12.9 km/h 8 km/h 84 % 0 mm
12:04 9.2 °C 6.8 °C 1022.2 hPa North 11.3 km/h 3.9 km/h 85 % 0 mm
12:09 9.3 °C 6.4 °C 1022.2 hPa North 9.3 km/h 8 km/h 82 % 0 mm
12:14 9.3 °C 6.2 °C 1022.2 hPa North 9.3 km/h 5.5 km/h 81 % 0 mm
12:19 9.5 °C 6.2 °C 1022.2 hPa North 9.7 km/h 7.1 km/h 80 % 0 mm
12:24 9.6 °C 6.3 °C 1021.9 hPa North 11.1 km/h 6.9 km/h 80 % 0 mm
12:29 9.7 °C 6 °C 1021.9 hPa North 11.1 km/h 7.2 km/h 78 % 0 mm
12:34 9.8 °C 6 °C 1021.9 hPa NNW 13 km/h 8 km/h 77 % 0 mm
12:39 10.1 °C 6.2 °C 1021.6 hPa NNW 7.4 km/h 6.9 km/h 77 % 0 mm
12:44 9.9 °C 5.9 °C 1021.6 hPa North 13 km/h 11.6 km/h 76 % 0 mm
12:49 9.7 °C 5.6 °C 1021.6 hPa NNW 9.3 km/h 6.1 km/h 76 % 0 mm
12:54 9.6 °C 5.6 °C 1021.2 hPa NNW 9.3 km/h 5.6 km/h 76 % 0 mm
12:59 9.7 °C 5.9 °C 1021.2 hPa NNW 9.3 km/h 5.3 km/h 77 % 0 mm
13:04 10 °C 5 °C 1021.2 hPa NNW 12.9 km/h 9.3 km/h 71 % 0 mm
13:09 10 °C 4.8 °C 1021.2 hPa NW 11.1 km/h 5.6 km/h 70 % 0 mm
13:14 10.3 °C 5.1 °C 1021.2 hPa NW 12.9 km/h 12.1 km/h 70 % 0 mm
13:19 10.2 °C 4.2 °C 1021.2 hPa NW 13 km/h 9.7 km/h 66 % 0 mm
13:24 10 °C 3.9 °C 1020.9 hPa NW 18.5 km/h 9.5 km/h 66 % 0 mm
13:29 10.1 °C 4.1 °C 1020.9 hPa NNW 14.8 km/h 8.9 km/h 66 % 0 mm
13:34 10 °C 3.5 °C 1020.9 hPa NW 22.2 km/h 15.1 km/h 64 % 0 mm
13:39 9.9 °C 3.6 °C 1020.9 hPa North 18.5 km/h 9.3 km/h 65 % 0 mm
13:44 9.9 °C 3.8 °C 1020.9 hPa NW 13 km/h 10.1 km/h 66 % 0 mm
13:49 10.4 °C 4.2 °C 1020.9 hPa NW 20.4 km/h 16.7 km/h 65 % 0 mm
13:54 10.7 °C 3.7 °C 1020.9 hPa North 22.5 km/h 14.5 km/h 62 % 0 mm
13:59 10.7 °C 3.4 °C 1020.5 hPa NW 18.5 km/h 11.4 km/h 61 % 0 mm
14:04 11.2 °C 3.9 °C 1020.5 hPa NNW 16.7 km/h 7.2 km/h 61 % 0 mm
14:09 11.4 °C 3.9 °C 1020.5 hPa NNE 14.8 km/h 9.3 km/h 60 % 0 mm
14:14 11.2 °C 3.3 °C 1020.5 hPa NNE 11.1 km/h 8.4 km/h 58 % 0 mm
14:19 10.9 °C 3.5 °C 1020.5 hPa North 14.8 km/h 8.7 km/h 60 % 0 mm
14:24 10.8 °C 3.8 °C 1020.5 hPa North 16.7 km/h 9.7 km/h 62 % 0 mm
14:29 10.6 °C 3.2 °C 1020.5 hPa WNW 14.8 km/h 14.6 km/h 60 % 0 mm
14:34 10.4 °C 3 °C 1020.5 hPa NW 18.5 km/h 12.6 km/h 60 % 0 mm
14:39 10.4 °C 3.2 °C 1020.5 hPa NW 9.3 km/h 5 km/h 61 % 0 mm
14:44 10.4 °C 3 °C 1020.5 hPa NW 13 km/h 8.9 km/h 60 % 0 mm
14:49 10.3 °C 3.4 °C 1020.5 hPa North 18.5 km/h 6.6 km/h 62 % 0 mm
14:54 10.2 °C 3.7 °C 1020.5 hPa NNW 16.7 km/h 9.5 km/h 64 % 0 mm
14:59 10.2 °C 3.9 °C 1020.5 hPa NW 16.7 km/h 9.7 km/h 65 % 0 mm
15:04 10.2 °C 3.9 °C 1020.5 hPa NW 9.7 km/h 7.6 km/h 65 % 0 mm
15:09 10.2 °C 3.9 °C 1020.5 hPa NW 8 km/h 7.7 km/h 65 % 0 mm
15:14 10.2 °C 3.9 °C 1020.5 hPa NNW 11.1 km/h 8.5 km/h 65 % 0 mm
15:19 10.2 °C 3.9 °C 1020.5 hPa NNW 11.1 km/h 6.9 km/h 65 % 0 mm
15:24 10.1 °C 3.8 °C 1020.5 hPa NNW 11.1 km/h 7.2 km/h 65 % 0 mm
15:29 10 °C 3.7 °C 1020.5 hPa NNW 7.4 km/h 2.3 km/h 65 % 0 mm
15:34 10 °C 3.5 °C 1020.5 hPa NNW 9.7 km/h 7.6 km/h 64 % 0 mm
15:39 9.9 °C 3.4 °C 1020.5 hPa NNW 9.7 km/h 8.4 km/h 64 % 0 mm
15:44 9.9 °C 3.4 °C 1020.5 hPa NW 9.7 km/h 6.9 km/h 64 % 0 mm
15:49 9.9 °C 3.7 °C 1020.5 hPa NNW 5.6 km/h 4.2 km/h 65 % 0 mm
15:54 9.9 °C 3.4 °C 1020.5 hPa NNW 14.8 km/h 5.5 km/h 64 % 0 mm
15:59 9.9 °C 3.6 °C 1020.5 hPa NNW 9.3 km/h 6.6 km/h 65 % 0 mm
16:04 9.8 °C 3.6 °C 1020.5 hPa North 11.1 km/h 4 km/h 65 % 0 mm
16:09 9.8 °C 3.7 °C 1020.5 hPa NNW 9.3 km/h 8.2 km/h 66 % 0 mm
16:14 9.7 °C 3.7 °C 1020.5 hPa NNW 11.1 km/h 6 km/h 66 % 0 mm
16:19 9.7 °C 3.9 °C 1020.5 hPa NNW 6.4 km/h 4.8 km/h 67 % 0 mm
16:24 9.7 °C 3.8 °C 1020.5 hPa NNW 9.3 km/h 5.8 km/h 67 % 0 mm
16:29 9.7 °C 3.8 °C 1020.5 hPa North 13 km/h 7.7 km/h 67 % 0 mm
16:34 9.6 °C 3.8 °C 1020.5 hPa North 7.4 km/h 6.4 km/h 67 % 0 mm
16:39 9.6 °C 3.9 °C 1020.5 hPa NNW 9.7 km/h 6.9 km/h 68 % 0 mm
16:44 9.6 °C 3.9 °C 1020.5 hPa North 9.3 km/h 5.3 km/h 68 % 0 mm
16:49 9.5 °C 3.7 °C 1020.5 hPa North 9.3 km/h 6.6 km/h 67 % 0 mm
16:54 9.4 °C 3.8 °C 1020.5 hPa NNW 5.6 km/h 3.5 km/h 68 % 0 mm
16:59 9.4 °C 3.8 °C 1020.5 hPa NNW 9.3 km/h 2.9 km/h 68 % 0 mm
17:04 9.4 °C 4 °C 1020.5 hPa North 5.6 km/h 4.8 km/h 69 % 0 mm
17:09 9.3 °C 3.9 °C 1020.5 hPa NNW 7.4 km/h 4.5 km/h 69 % 0 mm
17:14 9.3 °C 4.1 °C 1020.5 hPa NNW 13 km/h 4.7 km/h 70 % 0 mm
17:19 9.2 °C 4.1 °C 1020.5 hPa NNW 7.4 km/h 4.5 km/h 70 % 0 mm
17:24 9.2 °C 4.2 °C 1020.5 hPa NNW 5.6 km/h 3.7 km/h 71 % 0 mm
17:29 9.1 °C 4.1 °C 1020.5 hPa NNW 5.6 km/h 4.5 km/h 71 % 0 mm
17:34 9 °C 4.2 °C 1020.9 hPa NNW 5.6 km/h 3.4 km/h 72 % 0 mm
17:39 8.9 °C 4.1 °C 1020.9 hPa NNW 5.6 km/h 3.2 km/h 72 % 0 mm
17:44 8.8 °C 4.3 °C 1020.5 hPa NNW 5.6 km/h 4 km/h 73 % 0 mm
17:49 8.8 °C 4.2 °C 1020.9 hPa NNW 7.4 km/h 4 km/h 73 % 0 mm
17:54 8.7 °C 4.2 °C 1020.9 hPa NNW 5.6 km/h 2.1 km/h 73 % 0 mm
17:59 8.7 °C 4.3 °C 1020.9 hPa NNW 5.6 km/h 3.9 km/h 74 % 0 mm
18:04 8.6 °C 4.2 °C 1020.9 hPa North 5.6 km/h 5.3 km/h 74 % 0 mm
18:09 8.6 °C 4.2 °C 1020.9 hPa NNW 7.4 km/h 3.2 km/h 74 % 0 mm
18:14 8.6 °C 4.2 °C 1020.9 hPa NNW 7.4 km/h 4 km/h 74 % 0 mm
18:19 8.5 °C 4.1 °C 1020.9 hPa NNW 7.4 km/h 5.1 km/h 74 % 0 mm
18:24 8.4 °C 4.3 °C 1020.9 hPa NNW 9.3 km/h 4.8 km/h 75 % 0 mm
18:29 8.4 °C 4.2 °C 1020.9 hPa NNW 7.4 km/h 4.3 km/h 75 % 0 mm
18:34 8.4 °C 4.2 °C 1020.9 hPa NNW 6.4 km/h 6.6 km/h 75 % 0 mm
18:39 8.4 °C 4.2 °C 1020.9 hPa North 8 km/h 5 km/h 75 % 0 mm
18:44 8.4 °C 4.2 °C 1020.9 hPa NNW 5.6 km/h 5 km/h 75 % 0 mm
18:49 8.4 °C 4.4 °C 1020.9 hPa NNW 8 km/h 6.3 km/h 76 % 0 mm
18:54 8.3 °C 4.3 °C 1020.9 hPa NNW 7.4 km/h 4.2 km/h 76 % 0 mm
18:59 8.3 °C 4.3 °C 1020.9 hPa NNW 7.4 km/h 2.3 km/h 76 % 0 mm
19:04 8.3 °C 4.3 °C 1020.9 hPa NNW 5.6 km/h 4.2 km/h 76 % 0 mm
19:09 8.2 °C 4.2 °C 1020.9 hPa NNW 5.6 km/h 3.7 km/h 76 % 0 mm
19:14 8.2 °C 4.2 °C 1020.9 hPa NNW 5.6 km/h 3.2 km/h 76 % 0 mm
19:19 8.1 °C 4.1 °C 1020.9 hPa NNW 5.6 km/h 1.6 km/h 76 % 0 mm
19:24 8 °C 4.2 °C 1021.2 hPa NNW 5.6 km/h 1.8 km/h 77 % 0 mm
19:29 7.9 °C 4.1 °C 1020.9 hPa North 5.6 km/h 1.4 km/h 77 % 0 mm
19:34 7.8 °C 4 °C 1021.2 hPa NNW 3.7 km/h 2.4 km/h 77 % 0 mm
19:39 7.7 °C 3.9 °C 1021.2 hPa North 3.7 km/h 1.6 km/h 77 % 0 mm
19:44 7.6 °C 3.9 °C 1021.2 hPa NNW 3.7 km/h 2.4 km/h 78 % 0 mm
19:49 7.4 °C 4.1 °C 1021.2 hPa NNW 3.7 km/h 1.9 km/h 79 % 0 mm
19:54 7.4 °C 4 °C 1021.2 hPa North 1.9 km/h 1.4 km/h 79 % 0 mm
19:59 7.3 °C 3.9 °C 1021.2 hPa NNW 3.7 km/h 1.1 km/h 79 % 0 mm
20:04 7.2 °C 4 °C 1021.2 hPa NNW 5.6 km/h 3.1 km/h 80 % 0 mm
20:09 7.2 °C 4 °C 1021.2 hPa NNW 3.7 km/h 2.9 km/h 80 % 0 mm
20:14 7.2 °C 4.2 °C 1021.2 hPa NNW 5.6 km/h 3.5 km/h 81 % 0 mm
20:19 7.2 °C 4.2 °C 1021.2 hPa NNW 5.6 km/h 4.5 km/h 81 % 0 mm
20:24 7.3 °C 4.2 °C 1021.2 hPa NNW 6.4 km/h 4.7 km/h 81 % 0 mm
20:29 7.4 °C 4.3 °C 1021.2 hPa North 6.4 km/h 5.6 km/h 81 % 0 mm
20:34 7.4 °C 4.2 °C 1021.2 hPa NNW 7.4 km/h 5 km/h 80 % 0 mm
20:39 7.4 °C 4.2 °C 1021.2 hPa NNW 7.4 km/h 4.7 km/h 80 % 0 mm
20:44 7.4 °C 4.2 °C 1021.2 hPa NNW 5.6 km/h 3.5 km/h 80 % 0 mm
20:49 7.4 °C 4.2 °C 1021.2 hPa North 3.7 km/h 2.1 km/h 80 % 0 mm
20:54 7.3 °C 4.1 °C 1021.2 hPa NNW 5.6 km/h 2.7 km/h 80 % 0 mm
20:59 7.3 °C 4.1 °C 1021.2 hPa North 5.6 km/h 2.9 km/h 80 % 0 mm
21:04 7.2 °C 4 °C 1021.2 hPa NNW 5.6 km/h 4.7 km/h 80 % 0 mm
21:09 7.1 °C 4 °C 1021.2 hPa North 5.6 km/h 3.7 km/h 81 % 0 mm
21:14 6.9 °C 3.9 °C 1021.2 hPa NNW 5.6 km/h 4.7 km/h 81 % 0 mm
21:19 6.9 °C 4 °C 1021.2 hPa NNW 5.6 km/h 3.2 km/h 82 % 0 mm
21:24 6.8 °C 3.9 °C 1021.2 hPa NNW 5.6 km/h 3.2 km/h 82 % 0 mm
21:29 6.7 °C 3.9 °C 1021.2 hPa NNW 3.7 km/h 2.6 km/h 82 % 0 mm
21:34 6.7 °C 4.1 °C 1021.2 hPa North 5.6 km/h 3.7 km/h 83 % 0 mm
21:39 6.8 °C 4.1 °C 1021.2 hPa North 5.6 km/h 4 km/h 83 % 0 mm
21:44 6.8 °C 4.2 °C 1021.2 hPa NNW 5.6 km/h 3.4 km/h 83 % 0 mm
21:49 6.8 °C 4.1 °C 1021.2 hPa NNW 4.8 km/h 2.7 km/h 83 % 0 mm
21:54 6.8 °C 4.1 °C 1021.2 hPa NNW 5.6 km/h 3.1 km/h 83 % 0 mm
21:59 6.8 °C 4.1 °C 1021.6 hPa NNW 3.7 km/h 2.6 km/h 83 % 0 mm
22:04 6.7 °C 4.1 °C 1021.6 hPa NNW 5.6 km/h 2.4 km/h 83 % 0 mm
22:09 6.7 °C 4 °C 1021.6 hPa NNW 5.6 km/h 2.3 km/h 83 % 0 mm
22:14 6.6 °C 3.9 °C 1021.6 hPa NNW 3.7 km/h 1.8 km/h 83 % 0 mm
22:19 6.6 °C 4.1 °C 1021.6 hPa NNW 5.6 km/h 2.6 km/h 84 % 0 mm
22:24 6.6 °C 4.1 °C 1021.6 hPa North 3.7 km/h 2.4 km/h 84 % 0 mm
22:29 6.5 °C 4 °C 1021.6 hPa NNW 3.7 km/h 1.8 km/h 84 % 0 mm
22:34 6.4 °C 3.9 °C 1021.2 hPa North 5.6 km/h 2.4 km/h 84 % 0 mm
22:39 6.4 °C 3.9 °C 1021.2 hPa North 5.6 km/h 0.6 km/h 84 % 0 mm
22:44 6.3 °C 3.8 °C 1021.2 hPa North 5.6 km/h 3.1 km/h 84 % 0 mm
22:49 6.3 °C 3.9 °C 1021.2 hPa North 5.6 km/h 2.3 km/h 85 % 0 mm
22:54 6.2 °C 3.8 °C 1021.2 hPa NNW 5.6 km/h 3.2 km/h 85 % 0 mm
22:59 6.1 °C 3.8 °C 1021.2 hPa NNW 3.7 km/h 1.6 km/h 85 % 0 mm
23:04 6.1 °C 3.7 °C 1021.6 hPa NNW 5.6 km/h 2.4 km/h 85 % 0 mm
23:09 6 °C 3.8 °C 1021.2 hPa NNW 5.6 km/h 2.4 km/h 86 % 0 mm
23:14 5.9 °C 3.8 °C 1021.2 hPa NNW 5.6 km/h 4.7 km/h 86 % 0 mm
23:19 5.9 °C 3.7 °C 1021.2 hPa NNW 5.6 km/h 4 km/h 86 % 0 mm
23:24 5.9 °C 3.7 °C 1021.2 hPa NNW 5.6 km/h 2.9 km/h 86 % 0 mm
23:29 5.8 °C 3.6 °C 1021.2 hPa NNW 6.4 km/h 4.7 km/h 86 % 0 mm
23:34 5.7 °C 3.5 °C 1021.6 hPa North 3.7 km/h 2.1 km/h 86 % 0 mm
23:39 5.5 °C 3.3 °C 1021.6 hPa Calm     86 % 0 mm
23:44 5.4 °C 3.4 °C 1021.6 hPa NNW 3.7 km/h 1.8 km/h 87 % 0 mm
23:49 5.3 °C 3.3 °C 1021.6 hPa NNW 3.7 km/h 0.3 km/h 87 % 0 mm
23:54 5.3 °C 3.3 °C 1021.6 hPa NNW 4.8 km/h 1.6 km/h 87 % 0 mm
23:59 5.3 °C 3.5 °C 1021.6 hPa NNW 3.7 km/h 0.3 km/h 88 % 0 mm
Ararat Weather
Compliments of Weather Underground - 2.25 mb
Click here to send mail.


ABOUT

Live weather data from Ararat, Victoria, Australia, 3377
Data uploaded from Cumulus every 5 minutes to Weather Underground.
This site then downloads the raw data for formatting and display.
Metric and imperial data can be displayed. Graphs and historical data available.
Includes Sun and Moon times and rain image live from BOM.

Check out Ararat Weather on Facebook, Twitter and Google +

Help support ongoing costs by checking out the ads





Follow @AraratWeather